ARG1037 SACO-SAEZ
Flight info
| Callsign | ARG1037 |
|---|---|
| Flight time | 1h 7m |
| Altitude | 33000 |
| Route | UTRAX1G UTRAX UW24 SNT SNT7V |
| Aircraft | B77L/H-SDE1E2E3FGHIJ2J3J4J5M1RWXY/LB1D1 |
Departure
| Time | 2026-05-07 09:03 |
|---|---|
| Airport | Ingeniero Aeronáutico Ambrosio L.V. Taravella International Airport (SACO) |
Arrival
| Time | 2026-05-07 10:10 |
|---|---|
| Airport | Ezeiza International Airport - Ministro Pistarini (SAEZ) |
| Time | Latitude | Longitude | Altitude | Speed | Heading |
|---|---|---|---|---|---|
| 2026-05-07 08:48 | -31.31478 | -64.21110 | 1626 ft | 3 kts | 262° |
| 2026-05-07 08:49 | -31.31476 | -64.21090 | 1626 ft | 0 kts | 262° |
| 2026-05-07 08:54 | -31.31505 | -64.21132 | 1625 ft | 9 kts | 195° |
| 2026-05-07 08:54 | -31.31568 | -64.21113 | 1622 ft | 10 kts | 167° |
| 2026-05-07 08:55 | -31.31631 | -64.21107 | 1622 ft | 8 kts | 175° |
| 2026-05-07 08:55 | -31.31688 | -64.21093 | 1625 ft | 8 kts | 165° |
| 2026-05-07 08:55 | -31.31740 | -64.21062 | 1620 ft | 8 kts | 150° |
| 2026-05-07 08:55 | -31.31783 | -64.21015 | 1622 ft | 8 kts | 126° |
| 2026-05-07 08:56 | -31.31784 | -64.20950 | 1622 ft | 9 kts | 61° |
| 2026-05-07 08:56 | -31.31740 | -64.20905 | 1625 ft | 9 kts | 28° |
| 2026-05-07 08:56 | -31.31688 | -64.20872 | 1623 ft | 9 kts | 28° |
| 2026-05-07 08:56 | -31.31628 | -64.20840 | 1621 ft | 11 kts | 20° |
| 2026-05-07 08:57 | -31.31536 | -64.20830 | 1623 ft | 16 kts | 2° |
| 2026-05-07 08:57 | -31.31409 | -64.20828 | 1622 ft | 21 kts | 359° |
| 2026-05-07 08:57 | -31.31251 | -64.20834 | 1623 ft | 25 kts | 358° |
| 2026-05-07 08:57 | -31.31068 | -64.20839 | 1624 ft | 27 kts | 359° |
| 2026-05-07 08:58 | -31.30884 | -64.20844 | 1622 ft | 27 kts | 359° |
| 2026-05-07 08:58 | -31.30699 | -64.20844 | 1622 ft | 27 kts | 0° |
| 2026-05-07 08:58 | -31.30514 | -64.20846 | 1624 ft | 27 kts | 359° |
| 2026-05-07 08:58 | -31.30329 | -64.20848 | 1624 ft | 27 kts | 359° |
| 2026-05-07 08:59 | -31.30145 | -64.20850 | 1625 ft | 27 kts | 359° |
| 2026-05-07 08:59 | -31.29960 | -64.20853 | 1626 ft | 27 kts | 359° |
| 2026-05-07 08:59 | -31.29818 | -64.20856 | 1623 ft | 18 kts | 359° |
| 2026-05-07 08:59 | -31.29709 | -64.20861 | 1626 ft | 12 kts | 351° |
| 2026-05-07 09:00 | -31.29646 | -64.20890 | 1625 ft | 7 kts | 342° |
| 2026-05-07 09:00 | -31.29610 | -64.20885 | 1623 ft | 3 kts | 56° |
| 2026-05-07 09:00 | -31.29624 | -64.20866 | 1625 ft | 3 kts | 154° |
| 2026-05-07 09:00 | -31.29628 | -64.20865 | 1625 ft | 0 kts | 165° |
| 2026-05-07 09:02 | -31.29741 | -64.20854 | 1625 ft | 52 kts | 180° |
| 2026-05-07 09:02 | -31.30377 | -64.20843 | 1622 ft | 128 kts | 179° |
| 2026-05-07 09:02 | -31.31386 | -64.20829 | 1623 ft | 184 kts | 179° |
| 2026-05-07 09:02 | -31.32800 | -64.20803 | 1807 ft | 213 kts | 179° |
| 2026-05-07 09:03 | -31.34231 | -64.20736 | 2771 ft | 196 kts | 169° |
| 2026-05-07 09:03 | -31.35393 | -64.19990 | 3510 ft | 195 kts | 135° |
| 2026-05-07 09:03 | -31.36356 | -64.18844 | 4064 ft | 200 kts | 135° |
| 2026-05-07 09:03 | -31.37371 | -64.17660 | 4528 ft | 213 kts | 135° |
| 2026-05-07 09:04 | -31.38459 | -64.16387 | 4980 ft | 230 kts | 135° |
| 2026-05-07 09:04 | -31.39632 | -64.15012 | 5421 ft | 248 kts | 135° |
| 2026-05-07 09:04 | -31.40901 | -64.13524 | 5890 ft | 269 kts | 135° |
| 2026-05-07 09:04 | -31.42266 | -64.11927 | 6297 ft | 283 kts | 135° |
| 2026-05-07 09:05 | -31.43671 | -64.10282 | 6683 ft | 288 kts | 135° |
| 2026-05-07 09:05 | -31.45092 | -64.08620 | 7066 ft | 290 kts | 135° |
| 2026-05-07 09:05 | -31.46451 | -64.06913 | 7434 ft | 292 kts | 128° |
| 2026-05-07 09:05 | -31.47643 | -64.04973 | 7814 ft | 294 kts | 124° |
| 2026-05-07 09:06 | -31.48783 | -64.02984 | 8184 ft | 295 kts | 124° |
| 2026-05-07 09:06 | -31.49944 | -64.00993 | 8562 ft | 297 kts | 125° |
| 2026-05-07 09:06 | -31.51127 | -63.99007 | 8946 ft | 298 kts | 125° |
| 2026-05-07 09:06 | -31.52327 | -63.97013 | 9326 ft | 300 kts | 125° |
| 2026-05-07 09:07 | -31.53533 | -63.95013 | 9701 ft | 301 kts | 125° |
| 2026-05-07 09:07 | -31.54746 | -63.93003 | 10087 ft | 303 kts | 125° |
| 2026-05-07 09:07 | -31.55969 | -63.90977 | 10459 ft | 305 kts | 125° |
| 2026-05-07 09:07 | -31.57196 | -63.88942 | 10831 ft | 306 kts | 125° |
| 2026-05-07 09:08 | -31.58440 | -63.86878 | 11231 ft | 317 kts | 125° |
| 2026-05-07 09:08 | -31.59741 | -63.84718 | 11650 ft | 331 kts | 125° |
| 2026-05-07 09:08 | -31.61098 | -63.82464 | 12059 ft | 346 kts | 125° |
| 2026-05-07 09:08 | -31.62502 | -63.80130 | 12454 ft | 353 kts | 125° |
| 2026-05-07 09:09 | -31.63926 | -63.77762 | 12836 ft | 357 kts | 125° |
| 2026-05-07 09:09 | -31.65359 | -63.75376 | 13226 ft | 359 kts | 125° |
| 2026-05-07 09:09 | -31.66803 | -63.72974 | 13597 ft | 361 kts | 125° |
| 2026-05-07 09:09 | -31.68251 | -63.70561 | 13965 ft | 363 kts | 125° |
| 2026-05-07 09:10 | -31.69707 | -63.68134 | 14336 ft | 365 kts | 125° |
| 2026-05-07 09:10 | -31.71173 | -63.65690 | 14718 ft | 367 kts | 125° |
| 2026-05-07 09:10 | -31.72645 | -63.63234 | 15094 ft | 369 kts | 125° |
| 2026-05-07 09:10 | -31.74125 | -63.60763 | 15466 ft | 371 kts | 125° |
| 2026-05-07 09:11 | -31.75612 | -63.58278 | 15848 ft | 373 kts | 125° |
| 2026-05-07 09:11 | -31.77107 | -63.55778 | 16217 ft | 375 kts | 125° |
| 2026-05-07 09:11 | -31.78611 | -63.53260 | 16587 ft | 377 kts | 125° |
| 2026-05-07 09:11 | -31.80122 | -63.50732 | 16967 ft | 379 kts | 125° |
| 2026-05-07 09:12 | -31.81640 | -63.48188 | 17352 ft | 381 kts | 125° |
| 2026-05-07 09:12 | -31.83166 | -63.45628 | 17733 ft | 383 kts | 125° |
| 2026-05-07 09:12 | -31.84700 | -63.43055 | 18109 ft | 386 kts | 125° |
| 2026-05-07 09:12 | -31.86245 | -63.40461 | 18491 ft | 388 kts | 125° |
| 2026-05-07 09:13 | -31.87774 | -63.37892 | 18918 ft | 389 kts | 125° |
| 2026-05-07 09:13 | -31.89352 | -63.35287 | 19425 ft | 392 kts | 127° |
| 2026-05-07 09:13 | -31.91024 | -63.32737 | 19928 ft | 395 kts | 128° |
| 2026-05-07 09:13 | -31.92744 | -63.30208 | 20424 ft | 397 kts | 129° |
| 2026-05-07 09:14 | -31.94484 | -63.27674 | 20939 ft | 399 kts | 129° |
| 2026-05-07 09:14 | -31.96233 | -63.25119 | 21420 ft | 401 kts | 129° |
| 2026-05-07 09:14 | -31.97981 | -63.22553 | 21929 ft | 402 kts | 129° |
| 2026-05-07 09:14 | -31.99729 | -63.19972 | 22427 ft | 403 kts | 129° |
| 2026-05-07 09:15 | -32.01476 | -63.17382 | 22922 ft | 404 kts | 128° |
| 2026-05-07 09:15 | -32.03222 | -63.14788 | 23416 ft | 404 kts | 128° |
| 2026-05-07 09:15 | -32.04964 | -63.12192 | 23908 ft | 404 kts | 128° |
| 2026-05-07 09:15 | -32.06707 | -63.09594 | 24399 ft | 403 kts | 128° |
| 2026-05-07 09:16 | -32.08443 | -63.07001 | 24888 ft | 402 kts | 128° |
| 2026-05-07 09:16 | -32.10176 | -63.04413 | 25358 ft | 401 kts | 128° |
| 2026-05-07 09:16 | -32.11341 | -63.02672 | 25706 ft | 400 kts | 128° |
| 2026-05-07 09:16 | -32.13062 | -63.00099 | 26200 ft | 398 kts | 128° |
| 2026-05-07 09:17 | -32.14771 | -62.97541 | 26668 ft | 396 kts | 128° |
| 2026-05-07 09:17 | -32.16471 | -62.94997 | 27159 ft | 393 kts | 128° |
| 2026-05-07 09:17 | -32.18136 | -62.92502 | 27631 ft | 390 kts | 128° |
| 2026-05-07 09:17 | -32.19829 | -62.89965 | 28116 ft | 387 kts | 128° |
| 2026-05-07 09:18 | -32.21487 | -62.87477 | 28594 ft | 383 kts | 128° |
| 2026-05-07 09:18 | -32.23121 | -62.85024 | 29072 ft | 378 kts | 128° |
| 2026-05-07 09:18 | -32.24715 | -62.82629 | 29526 ft | 373 kts | 128° |
| 2026-05-07 09:18 | -32.26309 | -62.80235 | 29998 ft | 367 kts | 128° |
| 2026-05-07 09:19 | -32.27875 | -62.77879 | 30438 ft | 362 kts | 128° |
| 2026-05-07 09:19 | -32.29420 | -62.75554 | 30780 ft | 358 kts | 128° |
| 2026-05-07 09:19 | -32.30956 | -62.73241 | 31052 ft | 357 kts | 128° |
| 2026-05-07 09:19 | -32.32487 | -62.70934 | 31278 ft | 356 kts | 128° |
| 2026-05-07 09:20 | -32.34012 | -62.68635 | 31521 ft | 354 kts | 128° |
| 2026-05-07 09:20 | -32.35527 | -62.66350 | 31753 ft | 352 kts | 128° |
| 2026-05-07 09:20 | -32.37039 | -62.64067 | 31914 ft | 353 kts | 128° |
| 2026-05-07 09:20 | -32.38559 | -62.61771 | 31954 ft | 357 kts | 128° |
| 2026-05-07 09:21 | -32.41667 | -62.57072 | 31972 ft | 368 kts | 128° |
| 2026-05-07 09:21 | -32.44875 | -62.52216 | 31975 ft | 381 kts | 128° |
| 2026-05-07 09:22 | -32.48194 | -62.47186 | 31975 ft | 394 kts | 128° |
| 2026-05-07 09:22 | -32.51623 | -62.41981 | 32047 ft | 405 kts | 128° |
| 2026-05-07 09:23 | -32.53361 | -62.39340 | 32185 ft | 408 kts | 128° |
| 2026-05-07 09:23 | -32.55113 | -62.36676 | 32319 ft | 411 kts | 128° |
| 2026-05-07 09:23 | -32.56878 | -62.33991 | 32451 ft | 414 kts | 128° |
| 2026-05-07 09:23 | -32.58376 | -62.31709 | 32566 ft | 417 kts | 128° |
| 2026-05-07 09:24 | -32.60160 | -62.28990 | 32692 ft | 419 kts | 128° |
| 2026-05-07 09:24 | -32.61952 | -62.26258 | 32829 ft | 422 kts | 128° |
| 2026-05-07 09:24 | -32.65586 | -62.20710 | 32971 ft | 431 kts | 128° |
| 2026-05-07 09:25 | -32.69324 | -62.14980 | 33015 ft | 448 kts | 127° |
| 2026-05-07 09:25 | -32.72989 | -62.08825 | 33019 ft | 465 kts | 124° |
| 2026-05-07 09:26 | -32.76689 | -62.02371 | 33018 ft | 480 kts | 124° |
| 2026-05-07 09:26 | -32.80514 | -61.95748 | 33013 ft | 489 kts | 124° |
| 2026-05-07 09:27 | -32.84400 | -61.89068 | 33003 ft | 492 kts | 125° |
| 2026-05-07 09:28 | -32.90237 | -61.79042 | 32998 ft | 491 kts | 124° |
| 2026-05-07 09:28 | -32.94090 | -61.72406 | 33002 ft | 491 kts | 124° |
| 2026-05-07 09:29 | -32.97955 | -61.65734 | 33000 ft | 491 kts | 124° |
| 2026-05-07 09:29 | -33.01812 | -61.59064 | 33002 ft | 491 kts | 124° |
| 2026-05-07 09:30 | -33.05680 | -61.52364 | 32997 ft | 487 kts | 124° |
| 2026-05-07 09:30 | -33.07564 | -61.49095 | 32927 ft | 471 kts | 124° |
| 2026-05-07 09:30 | -33.09399 | -61.45908 | 32648 ft | 462 kts | 124° |
| 2026-05-07 09:30 | -33.11204 | -61.42771 | 32269 ft | 455 kts | 124° |
| 2026-05-07 09:31 | -33.12979 | -61.39685 | 31887 ft | 448 kts | 124° |
| 2026-05-07 09:31 | -33.14728 | -61.36639 | 31505 ft | 442 kts | 124° |
| 2026-05-07 09:31 | -33.16454 | -61.33633 | 31121 ft | 436 kts | 124° |
| 2026-05-07 09:31 | -33.18160 | -61.30659 | 30746 ft | 431 kts | 124° |
| 2026-05-07 09:32 | -33.19841 | -61.27725 | 30357 ft | 426 kts | 124° |
| 2026-05-07 09:32 | -33.21503 | -61.24823 | 29977 ft | 421 kts | 124° |
| 2026-05-07 09:32 | -33.23143 | -61.21956 | 29597 ft | 416 kts | 124° |
| 2026-05-07 09:32 | -33.24766 | -61.19117 | 29219 ft | 411 kts | 124° |
| 2026-05-07 09:33 | -33.26370 | -61.16310 | 28831 ft | 407 kts | 124° |
| 2026-05-07 09:33 | -33.27959 | -61.13527 | 28456 ft | 403 kts | 124° |
| 2026-05-07 09:33 | -33.29526 | -61.10774 | 28078 ft | 399 kts | 124° |
| 2026-05-07 09:33 | -33.31069 | -61.08040 | 27712 ft | 395 kts | 124° |
| 2026-05-07 09:34 | -33.32591 | -61.05336 | 27404 ft | 389 kts | 124° |
| 2026-05-07 09:34 | -33.34094 | -61.02667 | 27093 ft | 385 kts | 124° |
| 2026-05-07 09:34 | -33.35581 | -61.00025 | 26789 ft | 381 kts | 124° |
| 2026-05-07 09:34 | -33.37059 | -60.97400 | 26488 ft | 380 kts | 124° |
| 2026-05-07 09:35 | -33.38530 | -60.94786 | 26197 ft | 379 kts | 124° |
| 2026-05-07 09:35 | -33.39998 | -60.92175 | 25891 ft | 378 kts | 124° |
| 2026-05-07 09:35 | -33.41461 | -60.89571 | 25595 ft | 376 kts | 124° |
| 2026-05-07 09:35 | -33.42915 | -60.86980 | 25300 ft | 374 kts | 124° |
| 2026-05-07 09:36 | -33.44362 | -60.84400 | 24988 ft | 372 kts | 124° |
| 2026-05-07 09:36 | -33.45802 | -60.81831 | 24697 ft | 371 kts | 124° |
| 2026-05-07 09:36 | -33.47214 | -60.79309 | 24402 ft | 369 kts | 124° |
| 2026-05-07 09:36 | -33.48643 | -60.76758 | 24102 ft | 367 kts | 124° |
| 2026-05-07 09:37 | -33.50057 | -60.74228 | 23794 ft | 365 kts | 124° |
| 2026-05-07 09:37 | -33.51468 | -60.71704 | 23501 ft | 364 kts | 124° |
| 2026-05-07 09:37 | -33.52891 | -60.69156 | 23201 ft | 362 kts | 124° |
| 2026-05-07 09:37 | -33.54286 | -60.66657 | 22890 ft | 360 kts | 124° |
| 2026-05-07 09:38 | -33.55678 | -60.64161 | 22595 ft | 359 kts | 124° |
| 2026-05-07 09:38 | -33.57058 | -60.61684 | 22301 ft | 357 kts | 124° |
| 2026-05-07 09:38 | -33.58416 | -60.59247 | 22007 ft | 355 kts | 124° |
| 2026-05-07 09:38 | -33.59784 | -60.56789 | 21699 ft | 354 kts | 124° |
| 2026-05-07 09:39 | -33.61144 | -60.54343 | 21407 ft | 352 kts | 124° |
| 2026-05-07 09:39 | -33.62501 | -60.51902 | 21105 ft | 350 kts | 124° |
| 2026-05-07 09:39 | -33.63848 | -60.49477 | 20797 ft | 349 kts | 124° |
| 2026-05-07 09:39 | -33.65192 | -60.47057 | 20509 ft | 347 kts | 124° |
| 2026-05-07 09:40 | -33.66525 | -60.44654 | 20206 ft | 344 kts | 124° |
| 2026-05-07 09:40 | -33.67841 | -60.42280 | 19900 ft | 339 kts | 124° |
| 2026-05-07 09:40 | -33.69138 | -60.39938 | 19589 ft | 334 kts | 124° |
| 2026-05-07 09:40 | -33.70411 | -60.37639 | 19327 ft | 328 kts | 124° |
| 2026-05-07 09:41 | -33.71662 | -60.35378 | 19059 ft | 323 kts | 124° |
| 2026-05-07 09:41 | -33.72897 | -60.33144 | 18812 ft | 319 kts | 124° |
| 2026-05-07 09:41 | -33.74118 | -60.30934 | 18563 ft | 316 kts | 124° |
| 2026-05-07 09:41 | -33.75332 | -60.28736 | 18310 ft | 315 kts | 123° |
| 2026-05-07 09:42 | -33.76544 | -60.26542 | 18063 ft | 315 kts | 123° |
| 2026-05-07 09:42 | -33.77751 | -60.24353 | 17817 ft | 314 kts | 123° |
| 2026-05-07 09:42 | -33.78956 | -60.22166 | 17568 ft | 313 kts | 123° |
| 2026-05-07 09:42 | -33.80155 | -60.19990 | 17319 ft | 312 kts | 123° |
| 2026-05-07 09:43 | -33.81352 | -60.17817 | 17069 ft | 311 kts | 123° |
| 2026-05-07 09:43 | -33.82543 | -60.15654 | 16820 ft | 309 kts | 123° |
| 2026-05-07 09:43 | -33.83712 | -60.13529 | 16570 ft | 308 kts | 123° |
| 2026-05-07 09:43 | -33.84913 | -60.11358 | 16319 ft | 307 kts | 124° |
| 2026-05-07 09:44 | -33.86086 | -60.09261 | 16071 ft | 306 kts | 124° |
| 2026-05-07 09:44 | -33.87271 | -60.07145 | 15815 ft | 305 kts | 124° |
| 2026-05-07 09:44 | -33.88455 | -60.05031 | 15575 ft | 303 kts | 124° |
| 2026-05-07 09:44 | -33.89630 | -60.02929 | 15335 ft | 302 kts | 124° |
| 2026-05-07 09:45 | -33.90802 | -60.00831 | 15079 ft | 301 kts | 124° |
| 2026-05-07 09:45 | -33.91967 | -59.98742 | 14823 ft | 300 kts | 124° |
| 2026-05-07 09:45 | -33.93127 | -59.96663 | 14581 ft | 299 kts | 124° |
| 2026-05-07 09:45 | -33.94283 | -59.94587 | 14323 ft | 298 kts | 124° |
| 2026-05-07 09:46 | -33.95435 | -59.92519 | 14070 ft | 297 kts | 124° |
| 2026-05-07 09:46 | -33.96581 | -59.90459 | 13817 ft | 296 kts | 124° |
| 2026-05-07 09:46 | -33.97723 | -59.88406 | 13586 ft | 294 kts | 124° |
| 2026-05-07 09:46 | -33.98860 | -59.86361 | 13328 ft | 293 kts | 124° |
| 2026-05-07 09:47 | -33.99992 | -59.84322 | 13074 ft | 292 kts | 124° |
| 2026-05-07 09:47 | -34.01121 | -59.82288 | 12831 ft | 291 kts | 124° |
| 2026-05-07 09:47 | -34.02244 | -59.80265 | 12575 ft | 290 kts | 124° |
| 2026-05-07 09:47 | -34.03362 | -59.78248 | 12328 ft | 289 kts | 124° |
| 2026-05-07 09:48 | -34.04477 | -59.76236 | 12078 ft | 288 kts | 124° |
| 2026-05-07 09:48 | -34.05585 | -59.74235 | 11828 ft | 287 kts | 124° |
| 2026-05-07 09:48 | -34.06692 | -59.72237 | 11580 ft | 286 kts | 124° |
| 2026-05-07 09:48 | -34.07790 | -59.70252 | 11322 ft | 284 kts | 124° |
| 2026-05-07 09:49 | -34.08875 | -59.68290 | 11074 ft | 278 kts | 124° |
| 2026-05-07 09:49 | -34.09938 | -59.66367 | 10805 ft | 273 kts | 124° |
| 2026-05-07 09:49 | -34.10988 | -59.64464 | 10544 ft | 271 kts | 124° |
| 2026-05-07 09:49 | -34.12028 | -59.62581 | 10283 ft | 269 kts | 124° |
| 2026-05-07 09:50 | -34.13059 | -59.60713 | 10098 ft | 265 kts | 124° |
| 2026-05-07 09:50 | -34.14078 | -59.58864 | 10072 ft | 265 kts | 124° |
| 2026-05-07 09:50 | -34.15106 | -59.57000 | 10021 ft | 267 kts | 124° |
| 2026-05-07 09:50 | -34.16137 | -59.55128 | 10010 ft | 268 kts | 124° |
| 2026-05-07 09:51 | -34.17168 | -59.53256 | 9978 ft | 268 kts | 124° |
| 2026-05-07 09:51 | -34.18200 | -59.51381 | 9741 ft | 269 kts | 124° |
| 2026-05-07 09:51 | -34.19232 | -59.49505 | 9506 ft | 267 kts | 124° |
| 2026-05-07 09:51 | -34.20252 | -59.47649 | 9336 ft | 264 kts | 124° |
| 2026-05-07 09:52 | -34.21266 | -59.45804 | 9198 ft | 263 kts | 124° |
| 2026-05-07 09:52 | -34.22303 | -59.43986 | 9080 ft | 263 kts | 131° |
| 2026-05-07 09:52 | -34.23613 | -59.42436 | 8937 ft | 264 kts | 140° |
| 2026-05-07 09:52 | -34.25030 | -59.41032 | 8793 ft | 263 kts | 141° |
| 2026-05-07 09:53 | -34.26458 | -59.39655 | 8643 ft | 262 kts | 142° |
| 2026-05-07 09:53 | -34.27884 | -59.38276 | 8496 ft | 262 kts | 141° |
| 2026-05-07 09:53 | -34.29297 | -59.36897 | 8341 ft | 261 kts | 141° |
| 2026-05-07 09:53 | -34.30685 | -59.35533 | 8188 ft | 260 kts | 141° |
| 2026-05-07 09:54 | -34.32080 | -59.34154 | 8033 ft | 257 kts | 141° |
| 2026-05-07 09:54 | -34.33457 | -59.32784 | 7879 ft | 255 kts | 141° |
| 2026-05-07 09:54 | -34.34821 | -59.31425 | 7722 ft | 253 kts | 141° |
| 2026-05-07 09:54 | -34.36172 | -59.30072 | 7569 ft | 252 kts | 141° |
| 2026-05-07 09:55 | -34.37522 | -59.28720 | 7417 ft | 251 kts | 141° |
| 2026-05-07 09:55 | -34.38867 | -59.27370 | 7321 ft | 251 kts | 141° |
| 2026-05-07 09:55 | -34.40212 | -59.26019 | 7231 ft | 251 kts | 141° |
| 2026-05-07 09:55 | -34.41553 | -59.24670 | 7125 ft | 251 kts | 140° |
| 2026-05-07 09:56 | -34.42895 | -59.23319 | 7029 ft | 250 kts | 140° |
| 2026-05-07 09:56 | -34.44234 | -59.21971 | 6929 ft | 250 kts | 140° |
| 2026-05-07 09:56 | -34.45569 | -59.20625 | 6830 ft | 250 kts | 140° |
| 2026-05-07 09:56 | -34.46904 | -59.19278 | 6716 ft | 249 kts | 140° |
| 2026-05-07 09:57 | -34.48235 | -59.17936 | 6626 ft | 249 kts | 140° |
| 2026-05-07 09:57 | -34.49569 | -59.16588 | 6532 ft | 249 kts | 140° |
| 2026-05-07 09:57 | -34.50894 | -59.15251 | 6424 ft | 248 kts | 140° |
| 2026-05-07 09:57 | -34.52220 | -59.13911 | 6329 ft | 248 kts | 140° |
| 2026-05-07 09:58 | -34.53545 | -59.12571 | 6237 ft | 248 kts | 140° |
| 2026-05-07 09:58 | -34.54867 | -59.11234 | 6129 ft | 247 kts | 140° |
| 2026-05-07 09:58 | -34.56185 | -59.09900 | 6028 ft | 247 kts | 140° |
| 2026-05-07 09:58 | -34.57503 | -59.08566 | 5922 ft | 246 kts | 140° |
| 2026-05-07 09:59 | -34.58820 | -59.07233 | 5828 ft | 246 kts | 140° |
| 2026-05-07 09:59 | -34.60133 | -59.05902 | 5721 ft | 246 kts | 140° |
| 2026-05-07 09:59 | -34.61444 | -59.04574 | 5628 ft | 245 kts | 140° |
| 2026-05-07 09:59 | -34.62751 | -59.03248 | 5528 ft | 245 kts | 140° |
| 2026-05-07 10:00 | -34.64060 | -59.01920 | 5417 ft | 245 kts | 140° |
| 2026-05-07 10:00 | -34.65365 | -59.00596 | 5320 ft | 244 kts | 140° |
| 2026-05-07 10:00 | -34.66667 | -58.99273 | 5225 ft | 244 kts | 140° |
| 2026-05-07 10:00 | -34.67968 | -58.97951 | 5132 ft | 244 kts | 140° |
| 2026-05-07 10:01 | -34.69249 | -58.96649 | 5068 ft | 242 kts | 140° |
| 2026-05-07 10:01 | -34.70108 | -58.95777 | 5017 ft | 235 kts | 140° |
| 2026-05-07 10:01 | -34.71712 | -58.94145 | 4999 ft | 224 kts | 140° |
| 2026-05-07 10:01 | -34.72517 | -58.93327 | 4996 ft | 223 kts | 140° |
| 2026-05-07 10:02 | -34.74083 | -58.91733 | 4993 ft | 221 kts | 140° |
| 2026-05-07 10:02 | -34.74880 | -58.90922 | 4999 ft | 221 kts | 140° |
| 2026-05-07 10:02 | -34.75830 | -58.89489 | 4919 ft | 221 kts | 108° |
| 2026-05-07 10:02 | -34.75984 | -58.87635 | 4708 ft | 222 kts | 87° |
| 2026-05-07 10:03 | -34.75913 | -58.85805 | 4499 ft | 223 kts | 87° |
| 2026-05-07 10:03 | -34.75845 | -58.83925 | 4238 ft | 221 kts | 87° |
| 2026-05-07 10:03 | -34.75777 | -58.82067 | 3996 ft | 219 kts | 87° |
| 2026-05-07 10:03 | -34.75710 | -58.80227 | 3792 ft | 217 kts | 87° |
| 2026-05-07 10:04 | -34.75645 | -58.78395 | 3581 ft | 217 kts | 87° |
| 2026-05-07 10:04 | -34.75580 | -58.76557 | 3399 ft | 217 kts | 88° |
| 2026-05-07 10:04 | -34.75516 | -58.74724 | 3196 ft | 217 kts | 87° |
| 2026-05-07 10:04 | -34.75452 | -58.72904 | 3042 ft | 213 kts | 87° |
| 2026-05-07 10:05 | -34.75389 | -58.71112 | 2910 ft | 210 kts | 87° |
| 2026-05-07 10:05 | -34.75305 | -58.69376 | 2665 ft | 201 kts | 81° |
| 2026-05-07 10:05 | -34.75014 | -58.67742 | 2449 ft | 196 kts | 76° |
| 2026-05-07 10:05 | -34.74682 | -58.66143 | 2239 ft | 194 kts | 76° |
| 2026-05-07 10:06 | -34.74358 | -58.64557 | 2042 ft | 193 kts | 76° |
| 2026-05-07 10:06 | -34.74037 | -58.63001 | 1877 ft | 187 kts | 76° |
| 2026-05-07 10:06 | -34.73729 | -58.61481 | 1866 ft | 180 kts | 76° |
| 2026-05-07 10:06 | -34.73439 | -58.60038 | 1791 ft | 174 kts | 76° |
| 2026-05-07 10:07 | -34.73153 | -58.58602 | 1798 ft | 175 kts | 79° |
| 2026-05-07 10:07 | -34.73294 | -58.57176 | 1780 ft | 174 kts | 125° |
| 2026-05-07 10:07 | -34.74241 | -58.56271 | 1813 ft | 173 kts | 152° |
| 2026-05-07 10:07 | -34.75193 | -58.55500 | 1599 ft | 161 kts | 141° |
| 2026-05-07 10:08 | -34.76087 | -58.54784 | 1434 ft | 143 kts | 155° |
| 2026-05-07 10:08 | -34.76976 | -58.54411 | 1168 ft | 129 kts | 168° |
| 2026-05-07 10:08 | -34.77728 | -58.54205 | 828 ft | 127 kts | 170° |
| 2026-05-07 10:08 | -34.78585 | -58.54014 | 587 ft | 128 kts | 168° |
| 2026-05-07 10:09 | -34.79413 | -58.53793 | 420 ft | 119 kts | 168° |
| 2026-05-07 10:09 | -34.80216 | -58.53568 | 220 ft | 123 kts | 166° |
| 2026-05-07 10:09 | -34.81036 | -58.53297 | 110 ft | 116 kts | 166° |
| 2026-05-07 10:09 | -34.81754 | -58.53067 | 86 ft | 95 kts | 164° |
| 2026-05-07 10:10 | -34.82238 | -58.52901 | 90 ft | 62 kts | 166° |
| 2026-05-07 10:10 | -34.82595 | -58.52779 | 86 ft | 45 kts | 163° |
| 2026-05-07 10:10 | -34.82882 | -58.52682 | 88 ft | 40 kts | 165° |
| 2026-05-07 10:10 | -34.83136 | -58.52595 | 89 ft | 35 kts | 163° |
| 2026-05-07 10:11 | -34.83316 | -58.52529 | 91 ft | 22 kts | 163° |
| 2026-05-07 10:11 | -34.83419 | -58.52508 | 91 ft | 15 kts | 184° |
| 2026-05-07 10:11 | -34.83486 | -58.52516 | 91 ft | 5 kts | 154° |
| 2026-05-07 10:11 | -34.83487 | -58.52482 | 90 ft | 4 kts | 54° |
| 2026-05-07 10:12 | -34.83453 | -58.52483 | 90 ft | 5 kts | 345° |
| 2026-05-07 10:12 | -34.83410 | -58.52498 | 91 ft | 9 kts | 345° |
| 2026-05-07 10:12 | -34.83321 | -58.52529 | 91 ft | 17 kts | 342° |
| 2026-05-07 10:12 | -34.83181 | -58.52580 | 90 ft | 23 kts | 343° |
| 2026-05-07 10:13 | -34.83007 | -58.52641 | 88 ft | 29 kts | 346° |
| 2026-05-07 10:13 | -34.82790 | -58.52717 | 90 ft | 35 kts | 344° |
| 2026-05-07 10:13 | -34.82535 | -58.52803 | 88 ft | 40 kts | 345° |
| 2026-05-07 10:13 | -34.82255 | -58.52900 | 89 ft | 44 kts | 344° |
| 2026-05-07 10:14 | -34.81945 | -58.53008 | 88 ft | 48 kts | 344° |
| 2026-05-07 10:14 | -34.81646 | -58.53109 | 88 ft | 37 kts | 343° |
| 2026-05-07 10:14 | -34.81504 | -58.53265 | 88 ft | 30 kts | 299° |
| 2026-05-07 10:14 | -34.81403 | -58.53495 | 85 ft | 28 kts | 298° |
| 2026-05-07 10:15 | -34.81298 | -58.53584 | 83 ft | 20 kts | 358° |
| 2026-05-07 10:15 | -34.81140 | -58.53557 | 82 ft | 26 kts | 13° |
| 2026-05-07 10:15 | -34.81008 | -58.53600 | 83 ft | 16 kts | 306° |
| 2026-05-07 10:15 | -34.81016 | -58.53663 | 84 ft | 11 kts | 253° |
| 2026-05-07 10:16 | -34.81026 | -58.53701 | 83 ft | 0 kts | 253° |